createdAt,value
2022-08-26T00:02:11.487Z,19.80
2022-08-26T00:04:39.006Z,19.80
2022-08-26T00:07:06.645Z,19.80
2022-08-26T00:09:38.999Z,19.70
2022-08-26T00:12:12.457Z,19.60
2022-08-26T00:14:41.988Z,19.60
2022-08-26T00:17:09.681Z,19.60
2022-08-26T00:19:37.471Z,19.60
2022-08-26T00:22:05.294Z,19.50
2022-08-26T00:24:32.745Z,19.40
2022-08-26T00:27:00.435Z,19.30
2022-08-26T00:29:28.493Z,19.30
2022-08-26T00:31:59.349Z,19.30
2022-08-26T00:34:26.813Z,19.20
2022-08-26T00:36:54.509Z,19.20
2022-08-26T00:39:21.975Z,19.20
2022-08-26T00:41:50.033Z,19.10
2022-08-26T00:44:46.066Z,19.10
2022-08-26T00:47:34.045Z,19.10
2022-08-26T00:50:06.083Z,19.10
2022-08-26T00:52:34.571Z,19.10
2022-08-26T00:55:20.342Z,19.10
2022-08-26T00:57:50.287Z,19.20
2022-08-26T01:00:22.411Z,19.10
2022-08-26T01:02:50.589Z,19.10
2022-08-26T01:05:19.343Z,19.10
2022-08-26T01:07:47.665Z,19.00
2022-08-26T01:10:21.658Z,18.90
2022-08-26T01:12:54.194Z,18.90
2022-08-26T01:15:44.866Z,18.80
2022-08-26T01:18:13.730Z,18.80
2022-08-26T01:21:00.153Z,18.80
2022-08-26T01:23:41.587Z,18.70
2022-08-26T01:26:19.615Z,18.80
2022-08-26T01:28:50.661Z,18.80
2022-08-26T01:31:23.848Z,18.80
2022-08-26T01:34:10.872Z,18.80
2022-08-26T01:36:40.425Z,18.70
2022-08-26T01:39:09.976Z,18.70
2022-08-26T01:41:39.655Z,18.70
2022-08-26T01:44:09.932Z,18.70
2022-08-26T01:46:37.481Z,18.60
2022-08-26T01:49:07.936Z,18.60
2022-08-26T01:51:38.626Z,18.60
2022-08-26T01:54:08.507Z,18.60
2022-08-26T01:56:39.610Z,18.60
2022-08-26T01:59:11.231Z,18.60
2022-08-26T02:01:39.795Z,18.50
2022-08-26T02:04:33.058Z,18.50
2022-08-26T02:07:05.504Z,18.50
2022-08-26T02:09:38.414Z,18.50
2022-08-26T02:12:11.957Z,18.50
2022-08-26T02:14:43.530Z,18.50
2022-08-26T02:17:12.146Z,18.50
2022-08-26T02:19:49.561Z,18.60
2022-08-26T02:22:21.021Z,18.60
2022-08-26T02:24:58.289Z,18.60
2022-08-26T02:27:34.505Z,18.50
2022-08-26T02:30:10.897Z,18.50
2022-08-26T02:32:40.175Z,18.50
2022-08-26T02:35:10.705Z,18.50
2022-08-26T02:37:38.678Z,18.50
2022-08-26T02:40:12.606Z,18.40
2022-08-26T02:42:40.038Z,18.40
2022-08-26T02:45:10.919Z,18.40
2022-08-26T02:47:38.424Z,18.30
2022-08-26T02:50:06.770Z,18.30
2022-08-26T02:52:35.481Z,18.30
2022-08-26T02:55:04.476Z,18.20
2022-08-26T02:57:31.911Z,18.30
2022-08-26T03:00:08.559Z,18.30
2022-08-26T03:02:36.493Z,18.30
2022-08-26T03:05:04.211Z,18.20
2022-08-26T03:07:31.673Z,18.30
2022-08-26T03:09:59.613Z,18.20
2022-08-26T03:12:27.120Z,18.20
2022-08-26T03:14:54.621Z,18.20
2022-08-26T03:17:22.814Z,18.20
2022-08-26T03:19:57.028Z,18.20
2022-08-26T03:22:25.973Z,18.30
2022-08-26T03:24:54.778Z,18.30
2022-08-26T03:27:22.122Z,18.30
2022-08-26T03:30:08.300Z,18.40
2022-08-26T03:32:39.435Z,18.40
2022-08-26T03:35:09.691Z,18.40
2022-08-26T03:37:38.686Z,18.40
2022-08-26T03:40:10.333Z,18.40
2022-08-26T03:42:40.935Z,18.40
2022-08-26T03:45:15.320Z,18.40
2022-08-26T03:47:43.363Z,18.50
2022-08-26T03:50:12.941Z,18.50
2022-08-26T03:52:44.186Z,18.50
2022-08-26T03:55:13.326Z,18.40
2022-08-26T03:57:41.539Z,18.40
2022-08-26T04:00:15.222Z,18.40
2022-08-26T04:02:48.609Z,18.40
2022-08-26T04:05:17.899Z,18.40
2022-08-26T04:07:46.740Z,18.30
2022-08-26T04:10:20.202Z,18.30
2022-08-26T04:12:48.347Z,18.40
2022-08-26T04:15:17.839Z,18.40
2022-08-26T04:17:45.821Z,18.30
2022-08-26T04:20:13.990Z,18.30
2022-08-26T04:22:45.087Z,18.30
2022-08-26T04:25:13.423Z,18.30
2022-08-26T04:27:40.836Z,18.40
2022-08-26T04:30:09.006Z,18.40
2022-08-26T04:32:38.038Z,18.40
2022-08-26T04:35:07.003Z,18.40
2022-08-26T04:37:37.459Z,18.40
2022-08-26T04:40:06.423Z,18.40
2022-08-26T04:42:34.363Z,18.60
2022-08-26T04:45:05.897Z,18.50
2022-08-26T04:47:37.827Z,18.40
2022-08-26T04:50:06.956Z,18.50
2022-08-26T04:52:36.882Z,18.50
2022-08-26T04:55:06.578Z,18.60
2022-08-26T04:57:36.339Z,18.60
2022-08-26T05:00:06.263Z,18.70
2022-08-26T05:02:34.262Z,18.70
2022-08-26T05:05:02.012Z,18.80
2022-08-26T05:07:31.180Z,18.90
2022-08-26T05:09:59.596Z,19.10
2022-08-26T05:12:29.489Z,19.20
2022-08-26T05:14:57.203Z,19.30
2022-08-26T05:17:25.182Z,19.50
2022-08-26T05:19:53.065Z,19.70
2022-08-26T05:22:20.787Z,19.80
2022-08-26T05:24:48.130Z,19.90
2022-08-26T05:27:15.596Z,20.00
2022-08-26T05:29:42.973Z,20.10
2022-08-26T05:32:12.133Z,20.10
2022-08-26T05:34:39.555Z,20.30
2022-08-26T05:37:10.926Z,20.50
2022-08-26T05:39:43.433Z,20.70
2022-08-26T05:42:16.661Z,20.70
2022-08-26T05:44:53.862Z,20.80
2022-08-26T05:47:24.200Z,20.90
2022-08-26T05:49:51.891Z,21.00
2022-08-26T05:52:20.049Z,21.00
2022-08-26T05:54:47.749Z,21.10
2022-08-26T05:57:15.602Z,21.20
2022-08-26T05:59:43.072Z,21.30
2022-08-26T06:02:10.830Z,21.40
2022-08-26T06:04:39.659Z,21.50
2022-08-26T06:07:07.435Z,21.60
2022-08-26T06:09:39.437Z,21.60
2022-08-26T06:12:07.090Z,21.60
2022-08-26T06:14:35.987Z,21.70
2022-08-26T06:17:03.386Z,21.80
2022-08-26T06:19:32.945Z,21.90
2022-08-26T06:22:23.515Z,22.00
2022-08-26T06:25:10.254Z,22.10
2022-08-26T06:27:38.242Z,22.20
2022-08-26T06:30:06.566Z,22.40
2022-08-26T06:32:34.527Z,22.70
2022-08-26T06:35:01.869Z,23.00
2022-08-26T06:37:29.504Z,23.20
2022-08-26T06:39:57.792Z,23.30
2022-08-26T06:42:25.718Z,23.30
2022-08-26T06:44:54.114Z,23.40
2022-08-26T06:47:22.133Z,23.50
2022-08-26T06:49:51.122Z,23.60
2022-08-26T06:52:22.950Z,23.60
2022-08-26T06:54:52.021Z,23.60
2022-08-26T06:57:20.389Z,23.40
2022-08-26T06:59:51.107Z,23.30
2022-08-26T07:02:19.022Z,23.20
2022-08-26T07:04:48.385Z,23.30
2022-08-26T07:07:18.618Z,23.50
2022-08-26T07:09:49.567Z,23.60
2022-08-26T07:12:20.378Z,23.80
2022-08-26T07:14:48.412Z,24.00
2022-08-26T07:17:16.401Z,24.20
2022-08-26T07:19:44.062Z,24.40
2022-08-26T07:22:11.680Z,24.80
2022-08-26T07:24:42.798Z,25.00
2022-08-26T07:27:14.511Z,25.00
2022-08-26T07:29:43.471Z,25.00
2022-08-26T07:32:13.238Z,25.00
2022-08-26T07:34:42.024Z,25.00
2022-08-26T07:37:10.277Z,24.80
2022-08-26T07:39:40.409Z,24.80
2022-08-26T07:42:09.154Z,24.80
2022-08-26T07:44:38.029Z,25.00
2022-08-26T07:47:24.236Z,25.40
2022-08-26T07:49:57.789Z,25.40
2022-08-26T07:52:27.731Z,25.20
2022-08-26T07:54:58.124Z,25.30
2022-08-26T07:57:26.523Z,25.40
2022-08-26T07:59:56.692Z,25.80
2022-08-26T08:02:26.781Z,25.90
2022-08-26T08:04:58.296Z,25.90
2022-08-26T08:07:44.590Z,25.90
2022-08-26T08:10:18.249Z,25.70
2022-08-26T08:12:47.578Z,25.40
2022-08-26T08:15:17.073Z,25.40
2022-08-26T08:17:44.596Z,25.60
2022-08-26T08:20:13.498Z,25.60
2022-08-26T08:22:43.530Z,25.70
2022-08-26T08:25:12.882Z,26.00
2022-08-26T08:27:42.273Z,26.30
2022-08-26T08:30:13.641Z,26.50
2022-08-26T08:32:43.541Z,26.70
2022-08-26T08:35:13.449Z,26.50
2022-08-26T08:37:41.937Z,26.00
2022-08-26T08:40:15.365Z,25.80
2022-08-26T08:43:06.851Z,25.80
2022-08-26T08:45:57.409Z,25.60
2022-08-26T08:48:37.967Z,25.40
2022-08-26T08:51:39.754Z,25.00
2022-08-26T08:54:08.514Z,24.60
2022-08-26T08:56:40.753Z,24.40
2022-08-26T08:59:17.147Z,24.00
2022-08-26T09:01:52.473Z,23.90
2022-08-26T09:04:46.502Z,23.70
2022-08-26T09:07:19.021Z,23.30
2022-08-26T09:09:55.644Z,22.70
2022-08-26T09:12:29.642Z,22.30
2022-08-26T09:15:07.602Z,21.80
2022-08-26T09:17:50.893Z,21.40
2022-08-26T09:20:36.579Z,21.10
2022-08-26T09:23:04.637Z,20.90
2022-08-26T09:25:32.542Z,20.80
2022-08-26T09:28:01.361Z,20.40
2022-08-26T09:30:35.276Z,20.20
2022-08-26T09:33:10.860Z,20.10
2022-08-26T09:35:45.473Z,20.10
2022-08-26T09:38:26.876Z,20.00
2022-08-26T09:41:07.081Z,19.70
2022-08-26T09:43:37.485Z,19.40
2022-08-26T09:46:20.468Z,19.40
2022-08-26T09:48:48.157Z,18.90
2022-08-26T09:51:23.056Z,18.70
2022-08-26T09:53:53.764Z,18.50
2022-08-26T09:56:28.114Z,18.60
2022-08-26T09:58:57.347Z,18.80
2022-08-26T10:01:35.244Z,18.90
2022-08-26T10:04:21.264Z,18.90
2022-08-26T10:07:07.267Z,18.90
2022-08-26T10:09:40.576Z,19.10
2022-08-26T10:12:16.111Z,19.30
2022-08-26T10:14:59.446Z,19.60
2022-08-26T10:17:34.164Z,19.90
2022-08-26T10:20:22.459Z,20.30
2022-08-26T10:22:55.173Z,20.50
2022-08-26T10:25:29.051Z,20.90
2022-08-26T10:28:17.965Z,21.30
2022-08-26T10:31:00.543Z,21.60
2022-08-26T10:33:27.965Z,21.80
2022-08-26T10:35:58.958Z,22.00
2022-08-26T10:38:32.173Z,22.50
2022-08-26T10:41:13.727Z,23.00
2022-08-26T10:43:56.262Z,23.50
2022-08-26T10:46:28.879Z,24.30
2022-08-26T10:49:03.203Z,25.30
2022-08-26T10:51:41.971Z,26.00
2022-08-26T10:54:24.635Z,27.30
2022-08-26T10:57:15.983Z,27.80
2022-08-26T10:59:46.290Z,28.00
2022-08-26T11:02:25.195Z,29.90
2022-08-26T11:05:06.096Z,30.70
2022-08-26T11:07:43.130Z,31.80
2022-08-26T11:10:16.472Z,33.30
2022-08-26T11:12:49.373Z,33.50
2022-08-26T11:15:20.010Z,34.20
2022-08-26T11:17:52.640Z,34.30
2022-08-26T11:20:22.720Z,35.40
2022-08-26T11:22:55.377Z,35.70
2022-08-26T11:25:29.121Z,34.30
2022-08-26T11:27:59.818Z,33.60
2022-08-26T11:30:42.642Z,33.50
2022-08-26T11:33:11.271Z,33.90
2022-08-26T11:35:38.800Z,33.70
2022-08-26T11:38:27.007Z,33.80
2022-08-26T11:41:08.650Z,33.30
2022-08-26T11:43:37.566Z,33.30
2022-08-26T11:46:10.412Z,32.90
2022-08-26T11:48:44.429Z,32.70
2022-08-26T11:51:13.578Z,32.50
2022-08-26T11:53:44.418Z,32.70
2022-08-26T11:56:28.786Z,32.90
2022-08-26T11:59:01.964Z,33.00
2022-08-26T12:01:38.295Z,33.40
2022-08-26T12:04:09.906Z,34.10
2022-08-26T12:06:46.187Z,34.10
2022-08-26T12:09:25.212Z,34.40
2022-08-26T12:11:54.148Z,35.00
2022-08-26T12:14:27.886Z,35.10
2022-08-26T12:17:08.185Z,34.80
2022-08-26T12:19:38.330Z,35.00
2022-08-26T12:22:27.303Z,35.30
2022-08-26T12:24:59.544Z,35.10
2022-08-26T12:27:37.259Z,35.30
2022-08-26T12:30:12.492Z,35.50
2022-08-26T12:32:57.451Z,36.00
2022-08-26T12:35:28.758Z,37.60
2022-08-26T12:37:58.603Z,38.40
2022-08-26T12:40:44.632Z,38.40
2022-08-26T12:43:17.065Z,37.90
2022-08-26T12:45:56.662Z,37.00
2022-08-26T12:48:31.785Z,35.70
2022-08-26T12:51:01.102Z,34.90
2022-08-26T12:53:33.910Z,34.50
2022-08-26T12:56:11.902Z,34.20
2022-08-26T12:58:40.072Z,33.90
2022-08-26T13:01:08.350Z,33.80
2022-08-26T13:03:43.918Z,33.80
2022-08-26T13:06:15.961Z,33.80
2022-08-26T13:08:59.897Z,33.70
2022-08-26T13:11:31.485Z,33.60
2022-08-26T13:14:07.976Z,33.40
2022-08-26T13:16:37.340Z,33.60
2022-08-26T13:19:10.831Z,33.70
2022-08-26T13:21:44.825Z,33.70
2022-08-26T13:24:16.232Z,33.50
2022-08-26T13:26:46.169Z,33.50
2022-08-26T13:29:13.920Z,33.60
2022-08-26T13:31:45.252Z,33.80
2022-08-26T13:34:16.172Z,34.00
2022-08-26T13:36:44.762Z,33.80
2022-08-26T13:39:12.802Z,33.80
2022-08-26T13:41:40.155Z,34.10
2022-08-26T13:44:13.579Z,34.40
2022-08-26T13:46:41.080Z,34.20
2022-08-26T13:49:08.494Z,33.90
2022-08-26T13:51:37.637Z,33.40
2022-08-26T13:54:05.940Z,32.90
2022-08-26T13:56:34.518Z,32.70
2022-08-26T13:59:02.953Z,32.30
2022-08-26T14:01:31.582Z,32.50
2022-08-26T14:03:59.148Z,32.30
2022-08-26T14:06:27.060Z,32.10
2022-08-26T14:08:54.637Z,31.80
2022-08-26T14:11:23.068Z,31.80
2022-08-26T14:13:51.003Z,31.90
2022-08-26T14:16:25.546Z,31.80
2022-08-26T14:18:53.991Z,31.90
2022-08-26T14:21:21.868Z,31.90
2022-08-26T14:23:49.255Z,31.60
2022-08-26T14:26:28.783Z,31.50
2022-08-26T14:28:59.427Z,31.40
2022-08-26T14:31:29.833Z,31.20
2022-08-26T14:34:07.938Z,31.00
2022-08-26T14:36:36.574Z,30.90
2022-08-26T14:39:12.053Z,31.10
2022-08-26T14:41:53.709Z,31.20
2022-08-26T14:44:24.825Z,31.10
2022-08-26T14:46:54.397Z,31.00
2022-08-26T14:49:23.662Z,31.10
2022-08-26T14:51:51.497Z,31.20
2022-08-26T14:54:20.636Z,31.60
2022-08-26T14:56:58.557Z,32.40
2022-08-26T14:59:28.659Z,33.20
2022-08-26T15:01:57.034Z,33.40
2022-08-26T15:04:25.270Z,33.60
2022-08-26T15:06:55.467Z,33.60
2022-08-26T15:09:23.650Z,33.60
2022-08-26T15:11:51.620Z,32.90
2022-08-26T15:14:20.551Z,32.60
2022-08-26T15:16:55.808Z,32.80
2022-08-26T15:19:25.328Z,32.80
2022-08-26T15:21:52.983Z,32.70
2022-08-26T15:24:23.295Z,32.70
2022-08-26T15:26:50.753Z,32.90
2022-08-26T15:29:18.509Z,33.20
2022-08-26T15:31:47.431Z,33.20
2022-08-26T15:34:17.011Z,33.10
2022-08-26T15:36:46.531Z,32.90
2022-08-26T15:39:15.849Z,32.60
2022-08-26T15:41:43.446Z,32.20
2022-08-26T15:44:11.267Z,31.90
2022-08-26T15:46:39.140Z,31.40
2022-08-26T15:49:07.316Z,30.90
2022-08-26T15:51:45.720Z,30.10
2022-08-26T15:54:16.573Z,29.60
2022-08-26T15:56:44.089Z,29.10
2022-08-26T15:59:12.045Z,28.70
2022-08-26T16:01:40.149Z,28.30
2022-08-26T16:04:08.257Z,28.20
2022-08-26T16:06:38.361Z,28.00
2022-08-26T16:09:06.992Z,28.00
2022-08-26T16:11:36.313Z,27.80
2022-08-26T16:14:04.894Z,27.70
2022-08-26T16:16:32.370Z,27.40
2022-08-26T16:19:04.262Z,27.00
2022-08-26T16:21:35.025Z,26.80
2022-08-26T16:24:03.982Z,26.80
2022-08-26T16:26:33.951Z,26.60
2022-08-26T16:29:03.847Z,26.70
2022-08-26T16:31:31.829Z,26.80
2022-08-26T16:33:59.190Z,26.90
2022-08-26T16:36:26.605Z,26.60
2022-08-26T16:38:56.131Z,26.40
2022-08-26T16:41:26.425Z,26.30
2022-08-26T16:43:54.764Z,26.30
2022-08-26T16:46:25.487Z,26.50
2022-08-26T16:48:55.278Z,26.60
2022-08-26T16:51:26.871Z,26.80
2022-08-26T16:53:56.210Z,26.90
2022-08-26T16:56:33.643Z,27.00
2022-08-26T16:59:06.998Z,27.10
2022-08-26T17:01:34.800Z,27.10
2022-08-26T17:04:02.308Z,26.90
2022-08-26T17:06:29.778Z,26.90
2022-08-26T17:08:57.207Z,26.80
2022-08-26T17:11:24.562Z,26.70
2022-08-26T17:13:52.037Z,26.70
2022-08-26T17:16:22.252Z,26.70
2022-08-26T17:18:53.318Z,26.40
2022-08-26T17:21:20.766Z,26.30
2022-08-26T17:23:48.263Z,26.10
2022-08-26T17:26:15.620Z,26.10
2022-08-26T17:28:42.941Z,25.90
2022-08-26T17:31:12.077Z,25.80
2022-08-26T17:33:40.462Z,25.60
2022-08-26T17:36:08.983Z,25.50
2022-08-26T17:38:38.570Z,25.50
2022-08-26T17:41:10.571Z,25.40
2022-08-26T17:43:39.438Z,25.30
2022-08-26T17:46:09.070Z,25.00
2022-08-26T17:48:38.293Z,24.80
2022-08-26T17:51:08.862Z,24.60
2022-08-26T17:53:37.136Z,24.20
2022-08-26T17:56:09.609Z,23.90
2022-08-26T17:58:38.678Z,23.70
2022-08-26T18:01:07.261Z,23.40
2022-08-26T18:03:35.340Z,23.20
2022-08-26T18:06:08.357Z,23.20
2022-08-26T18:08:36.028Z,23.00
2022-08-26T18:11:03.407Z,22.90
2022-08-26T18:13:30.802Z,22.80
2022-08-26T18:15:58.265Z,22.70
2022-08-26T18:18:25.731Z,22.60
2022-08-26T18:21:01.348Z,22.50
2022-08-26T18:23:29.655Z,22.40
2022-08-26T18:25:59.383Z,22.30
2022-08-26T18:28:26.821Z,22.30
2022-08-26T18:30:54.602Z,22.10
2022-08-26T18:33:25.021Z,21.90
2022-08-26T18:35:53.003Z,21.80
2022-08-26T18:38:20.443Z,21.70
2022-08-26T18:40:49.832Z,21.60
2022-08-26T18:43:17.357Z,21.50
2022-08-26T18:45:44.911Z,21.30
2022-08-26T18:48:13.049Z,21.30
2022-08-26T18:50:45.814Z,21.20
2022-08-26T18:53:15.595Z,21.10
2022-08-26T18:55:43.997Z,21.00
2022-08-26T18:58:11.577Z,20.90
2022-08-26T19:00:39.157Z,20.80
2022-08-26T19:03:06.522Z,20.80
2022-08-26T19:05:45.789Z,20.80
2022-08-26T19:08:13.387Z,20.70
2022-08-26T19:10:41.418Z,20.60
2022-08-26T19:13:09.662Z,20.50
2022-08-26T19:15:42.265Z,20.50
2022-08-26T19:18:11.277Z,20.50
2022-08-26T19:20:46.480Z,20.50
2022-08-26T19:23:30.794Z,20.40
2022-08-26T19:25:59.324Z,20.40
2022-08-26T19:28:26.723Z,20.30
2022-08-26T19:30:54.133Z,20.30
2022-08-26T19:33:21.616Z,20.30
2022-08-26T19:35:48.950Z,20.30
2022-08-26T19:38:16.320Z,20.30
2022-08-26T19:40:44.273Z,20.20
2022-08-26T19:43:12.226Z,20.20
2022-08-26T19:45:40.168Z,20.20
2022-08-26T19:48:07.687Z,20.20
2022-08-26T19:50:35.585Z,20.20
2022-08-26T19:53:04.110Z,20.20
2022-08-26T19:55:31.540Z,20.10
2022-08-26T19:57:58.987Z,20.10
2022-08-26T20:00:29.321Z,20.10
2022-08-26T20:02:57.143Z,20.00
2022-08-26T20:05:25.962Z,20.00
2022-08-26T20:07:53.598Z,20.00
2022-08-26T20:10:23.446Z,19.90
2022-08-26T20:12:52.227Z,20.00
2022-08-26T20:15:21.911Z,20.10
2022-08-26T20:17:49.798Z,20.10
2022-08-26T20:20:35.738Z,20.00
2022-08-26T20:23:05.105Z,20.10
2022-08-26T20:25:33.241Z,20.10
2022-08-26T20:28:01.670Z,20.20
2022-08-26T20:30:29.084Z,20.20
2022-08-26T20:32:57.345Z,20.20
2022-08-26T20:35:25.394Z,20.30
2022-08-26T20:37:52.725Z,20.40
2022-08-26T20:40:21.775Z,20.40
2022-08-26T20:42:49.167Z,20.40
2022-08-26T20:45:16.914Z,20.30
2022-08-26T20:47:44.551Z,20.20
2022-08-26T20:50:11.951Z,20.10
2022-08-26T20:52:39.793Z,20.10
2022-08-26T20:55:07.887Z,20.00
2022-08-26T20:57:35.304Z,19.90
2022-08-26T21:00:05.463Z,19.80
2022-08-26T21:02:34.203Z,19.80
2022-08-26T21:05:01.763Z,20.00
2022-08-26T21:07:30.224Z,20.10
2022-08-26T21:09:58.077Z,20.10
2022-08-26T21:12:26.889Z,20.00
2022-08-26T21:14:54.898Z,19.90
2022-08-26T21:17:22.686Z,19.90
2022-08-26T21:19:50.191Z,19.80
2022-08-26T21:22:17.566Z,19.80
2022-08-26T21:24:44.988Z,19.80
2022-08-26T21:27:13.300Z,19.80
2022-08-26T21:29:47.245Z,19.80
2022-08-26T21:32:16.493Z,19.80
2022-08-26T21:34:44.338Z,19.80
2022-08-26T21:37:16.328Z,19.80
2022-08-26T21:39:44.302Z,19.80
2022-08-26T21:42:12.309Z,19.70
2022-08-26T21:44:40.034Z,19.70
2022-08-26T21:47:07.456Z,19.70
2022-08-26T21:49:35.566Z,19.60
2022-08-26T21:52:04.508Z,19.50
2022-08-26T21:54:32.502Z,19.50
2022-08-26T21:57:00.397Z,19.40
2022-08-26T21:59:27.717Z,19.30
2022-08-26T22:01:55.203Z,19.40
2022-08-26T22:04:23.347Z,19.30
2022-08-26T22:06:54.253Z,19.30
2022-08-26T22:09:24.245Z,19.20
2022-08-26T22:11:53.157Z,19.20
2022-08-26T22:14:30.417Z,19.20
2022-08-26T22:16:59.692Z,19.30
2022-08-26T22:19:27.320Z,19.30
2022-08-26T22:21:55.831Z,19.30
2022-08-26T22:24:25.733Z,19.30
2022-08-26T22:26:54.202Z,19.30
2022-08-26T22:29:22.561Z,19.30
2022-08-26T22:31:50.103Z,19.30
2022-08-26T22:34:19.404Z,19.40
2022-08-26T22:36:48.734Z,19.40
2022-08-26T22:39:20.212Z,19.40
2022-08-26T22:41:48.550Z,19.40
2022-08-26T22:44:17.582Z,19.40
2022-08-26T22:46:46.658Z,19.40
2022-08-26T22:49:18.309Z,19.40
2022-08-26T22:51:46.569Z,19.40
2022-08-26T22:54:15.404Z,19.40
2022-08-26T22:56:44.707Z,19.40
2022-08-26T22:59:13.114Z,19.40
2022-08-26T23:01:42.670Z,19.30
2022-08-26T23:04:10.978Z,19.30
2022-08-26T23:06:43.180Z,19.40
2022-08-26T23:09:16.753Z,19.30
2022-08-26T23:11:46.671Z,19.30
2022-08-26T23:14:14.609Z,19.30
2022-08-26T23:16:42.816Z,19.30
2022-08-26T23:19:13.356Z,19.30
2022-08-26T23:21:40.921Z,19.30
2022-08-26T23:24:08.712Z,19.30
2022-08-26T23:26:37.112Z,19.30
2022-08-26T23:29:06.539Z,19.30
2022-08-26T23:31:34.368Z,19.30
2022-08-26T23:34:20.310Z,19.30
2022-08-26T23:36:48.193Z,19.30
2022-08-26T23:39:16.477Z,19.30
2022-08-26T23:41:44.499Z,19.30
2022-08-26T23:44:12.657Z,19.20
2022-08-26T23:46:40.422Z,19.20
2022-08-26T23:49:07.974Z,19.20
2022-08-26T23:51:54.081Z,19.20
2022-08-26T23:54:21.438Z,19.20
2022-08-26T23:56:48.879Z,19.20
2022-08-26T23:59:16.213Z,19.20
